createdAt,value
2019-03-29T00:01:02.363Z,10.97
2019-03-29T00:03:31.738Z,13.77
2019-03-29T00:06:01.123Z,14.97
2019-03-29T00:08:30.482Z,14.63
2019-03-29T00:10:59.844Z,12.63
2019-03-29T00:13:29.204Z,11.57
2019-03-29T00:15:59.971Z,13.57
2019-03-29T00:18:29.496Z,11.53
2019-03-29T00:20:58.859Z,12.20
2019-03-29T00:23:29.983Z,11.33
2019-03-29T00:25:59.389Z,12.40
2019-03-29T00:28:28.776Z,12.50
2019-03-29T00:30:58.175Z,12.47
2019-03-29T00:33:27.559Z,11.43
2019-03-29T00:35:56.987Z,10.37
2019-03-29T00:38:26.385Z,10.00
2019-03-29T00:40:55.737Z,14.65
2019-03-29T00:43:25.092Z,13.47
2019-03-29T00:45:54.612Z,12.77
2019-03-29T00:48:23.972Z,12.93
2019-03-29T00:50:53.376Z,14.20
2019-03-29T00:53:22.842Z,11.77
2019-03-29T00:55:52.252Z,14.33
2019-03-29T00:58:22.845Z,11.97
2019-03-29T01:00:52.352Z,10.27
2019-03-29T01:03:21.715Z,12.37
2019-03-29T01:05:51.102Z,13.87
2019-03-29T01:08:20.914Z,10.47
2019-03-29T01:10:50.287Z,11.50
2019-03-29T01:13:19.649Z,11.33
2019-03-29T01:15:49.028Z,8.63
2019-03-29T01:18:18.401Z,13.17
2019-03-29T01:20:48.086Z,13.43
2019-03-29T01:23:17.533Z,12.73
2019-03-29T01:25:47.568Z,9.53
2019-03-29T01:28:16.954Z,14.33
2019-03-29T01:30:46.698Z,8.83
2019-03-29T01:33:16.071Z,11.00
2019-03-29T01:35:45.437Z,10.10
2019-03-29T01:38:21.725Z,10.50
2019-03-29T01:40:45.943Z,12.47
2019-03-29T01:43:15.310Z,13.87
2019-03-29T01:45:45.912Z,13.10
2019-03-29T01:48:15.369Z,12.20
2019-03-29T01:50:45.411Z,14.13
2019-03-29T01:53:15.270Z,10.00
2019-03-29T02:14:46.686Z,11.83
2019-03-29T02:17:16.054Z,12.87
2019-03-29T02:19:45.409Z,13.33
2019-03-29T02:22:14.792Z,12.98
2019-03-29T02:24:44.130Z,9.97
2019-03-29T02:27:13.807Z,13.57
2019-03-29T02:29:43.183Z,10.77
2019-03-29T02:32:12.621Z,13.50
2019-03-29T02:34:43.628Z,13.37
2019-03-29T02:37:13.512Z,11.00
2019-03-29T02:39:42.855Z,10.40
2019-03-29T02:42:12.393Z,12.07
2019-03-29T02:44:41.723Z,13.37
2019-03-29T02:47:11.090Z,14.53
2019-03-29T02:49:40.718Z,14.00
2019-03-29T02:52:10.385Z,13.23
2019-03-29T02:54:39.812Z,14.93
2019-03-29T02:57:09.172Z,14.13
2019-03-29T02:59:39.058Z,10.23
2019-03-29T03:02:08.490Z,13.10
2019-03-29T03:04:37.855Z,15.40
2019-03-29T03:07:07.286Z,10.13
2019-03-29T03:09:36.589Z,13.93
2019-03-29T03:12:05.955Z,13.63
2019-03-29T03:14:35.332Z,13.60
2019-03-29T03:17:04.699Z,15.60
2019-03-29T03:19:34.055Z,15.13
2019-03-29T03:22:03.465Z,15.20
2019-03-29T03:24:32.810Z,14.77
2019-03-29T03:27:02.159Z,15.90
2019-03-29T03:29:31.970Z,14.20
2019-03-29T03:32:01.340Z,16.20
2019-03-29T03:34:30.863Z,16.20
2019-03-29T03:37:00.269Z,16.57
2019-03-29T03:39:32.026Z,14.40
2019-03-29T03:42:00.792Z,11.93
2019-03-29T03:44:30.173Z,12.03
2019-03-29T03:46:59.544Z,12.30
2019-03-29T03:49:29.961Z,13.57
2019-03-29T03:51:59.920Z,15.17
2019-03-29T03:54:29.266Z,17.60
2019-03-29T03:57:00.154Z,12.13
2019-03-29T03:59:31.157Z,10.40
2019-03-29T04:02:00.596Z,13.67
2019-03-29T04:04:30.474Z,14.50
2019-03-29T04:06:59.866Z,11.73
2019-03-29T04:09:29.230Z,13.43
2019-03-29T04:11:58.600Z,14.87
2019-03-29T04:14:27.978Z,13.87
2019-03-29T04:16:57.321Z,14.40
2019-03-29T04:19:26.677Z,15.40
2019-03-29T04:21:57.434Z,16.07
2019-03-29T04:24:26.781Z,15.53
2019-03-29T04:26:56.148Z,14.00
2019-03-29T04:29:25.686Z,15.07
2019-03-29T04:31:55.301Z,15.33
2019-03-29T04:34:24.678Z,15.03
2019-03-29T04:36:54.099Z,13.57
2019-03-29T04:39:23.427Z,15.60
2019-03-29T04:41:52.853Z,15.43
2019-03-29T04:44:22.721Z,12.60
2019-03-29T04:46:52.075Z,15.53
2019-03-29T04:49:21.433Z,13.80
2019-03-29T04:51:50.820Z,14.93
2019-03-29T04:54:20.180Z,14.27
2019-03-29T04:56:49.544Z,15.03
2019-03-29T04:59:18.908Z,14.40
2019-03-29T05:01:48.276Z,10.73
2019-03-29T05:04:17.653Z,14.90
2019-03-29T05:06:47.382Z,14.93
2019-03-29T05:09:16.748Z,15.23
2019-03-29T05:11:46.110Z,14.63
2019-03-29T05:14:15.485Z,15.70
2019-03-29T05:16:44.865Z,15.70
2019-03-29T05:19:14.224Z,15.60
2019-03-29T05:21:43.638Z,16.73
2019-03-29T05:24:13.004Z,17.43
2019-03-29T05:26:42.384Z,15.83
2019-03-29T05:29:12.212Z,15.47
2019-03-29T05:31:41.595Z,14.67
2019-03-29T05:34:12.325Z,14.43
2019-03-29T05:36:41.718Z,14.20
2019-03-29T05:39:11.076Z,16.00
2019-03-29T05:41:40.437Z,16.17
2019-03-29T05:44:09.828Z,15.80
2019-03-29T05:46:39.270Z,15.23
2019-03-29T05:49:08.591Z,14.70
2019-03-29T05:51:37.999Z,12.27
2019-03-29T05:54:07.349Z,15.70
2019-03-29T05:56:36.755Z,14.87
2019-03-29T05:59:06.145Z,15.10
2019-03-29T06:01:35.514Z,14.13
2019-03-29T06:04:04.935Z,14.37
2019-03-29T06:06:34.322Z,13.87
2019-03-29T06:09:05.347Z,15.83
2019-03-29T06:11:34.714Z,14.10
2019-03-29T06:14:04.363Z,14.27
2019-03-29T06:16:39.259Z,15.18
2019-03-29T06:19:04.822Z,12.77
2019-03-29T06:21:34.207Z,12.93
2019-03-29T06:24:03.658Z,13.23
2019-03-29T06:26:32.983Z,13.97
2019-03-29T06:29:02.368Z,13.13
2019-03-29T06:31:31.745Z,14.70
2019-03-29T06:34:01.116Z,15.77
2019-03-29T06:36:32.677Z,24.07
2019-03-29T06:39:05.635Z,22.43
2019-03-29T06:41:35.005Z,21.63
2019-03-29T06:44:04.381Z,18.37
2019-03-29T06:46:36.197Z,19.50
2019-03-29T06:49:05.572Z,22.90
2019-03-29T06:51:34.970Z,20.10
2019-03-29T06:54:04.329Z,17.20
2019-03-29T06:56:33.703Z,16.77
2019-03-29T06:59:03.098Z,15.60
2019-03-29T07:01:32.456Z,15.47
2019-03-29T07:04:01.811Z,15.53
2019-03-29T07:06:31.880Z,16.43
2019-03-29T07:09:06.182Z,16.83
2019-03-29T07:11:35.718Z,15.47
2019-03-29T07:14:06.123Z,18.10
2019-03-29T07:16:35.567Z,19.10
2019-03-29T07:19:05.290Z,17.07
2019-03-29T07:21:34.696Z,17.20
2019-03-29T07:24:04.054Z,15.67
2019-03-29T07:26:33.438Z,15.23
2019-03-29T07:29:02.826Z,14.67
2019-03-29T07:31:32.178Z,14.17
2019-03-29T07:34:01.557Z,14.13
2019-03-29T07:36:30.955Z,13.10
2019-03-29T07:39:00.993Z,15.80
2019-03-29T07:41:32.201Z,14.30
2019-03-29T07:44:01.465Z,14.53
2019-03-29T07:46:30.817Z,15.88
2019-03-29T07:49:00.186Z,14.43
2019-03-29T07:51:29.562Z,11.87
2019-03-29T07:53:58.914Z,13.20
2019-03-29T07:56:28.281Z,13.17
2019-03-29T07:58:58.407Z,13.97
2019-03-29T08:01:27.767Z,13.78
2019-03-29T08:03:57.134Z,15.13
2019-03-29T08:06:26.491Z,14.43
2019-03-29T08:08:55.851Z,15.03
2019-03-29T08:11:26.821Z,13.63
2019-03-29T08:13:56.312Z,13.23
2019-03-29T08:16:25.704Z,12.53
2019-03-29T08:18:55.085Z,12.70
2019-03-29T08:21:24.894Z,14.17
2019-03-29T08:23:54.255Z,12.33
2019-03-29T08:26:23.611Z,10.67
2019-03-29T08:28:53.000Z,11.60
2019-03-29T08:31:22.349Z,12.00
2019-03-29T08:33:51.717Z,12.07
2019-03-29T08:36:21.116Z,11.73
2019-03-29T08:38:50.474Z,12.57
2019-03-29T08:41:20.256Z,11.77
2019-03-29T08:43:49.654Z,12.07
2019-03-29T08:46:19.013Z,10.70
2019-03-29T08:48:48.376Z,12.00
2019-03-29T08:51:17.769Z,11.20
2019-03-29T08:53:47.459Z,11.83
2019-03-29T08:56:16.842Z,10.25
2019-03-29T08:58:46.724Z,9.53
2019-03-29T09:01:19.135Z,10.63
2019-03-29T09:04:02.653Z,9.37
2019-03-29T09:06:19.020Z,10.60
2019-03-29T09:08:48.449Z,10.07
2019-03-29T09:11:17.810Z,9.75
2019-03-29T09:13:47.856Z,9.57
2019-03-29T09:16:17.216Z,8.80
2019-03-29T09:18:46.575Z,8.33
2019-03-29T09:21:15.956Z,7.40
2019-03-29T09:23:45.306Z,6.40
2019-03-29T09:26:14.678Z,7.33
2019-03-29T09:28:44.396Z,7.93
2019-03-29T09:31:13.753Z,7.28
2019-03-29T09:33:43.109Z,6.60
2019-03-29T09:36:12.665Z,7.27
2019-03-29T09:38:43.674Z,6.63
2019-03-29T09:41:13.252Z,7.50
2019-03-29T09:43:44.003Z,6.57
2019-03-29T09:46:13.354Z,5.97
2019-03-29T09:48:42.706Z,5.87
2019-03-29T09:51:12.126Z,5.47
2019-03-29T09:53:41.621Z,5.63
2019-03-29T09:56:11.297Z,6.33
2019-03-29T09:58:40.676Z,6.50
2019-03-29T10:01:10.074Z,6.17
2019-03-29T10:03:39.424Z,5.77
2019-03-29T10:06:08.820Z,6.00
2019-03-29T10:08:38.159Z,5.67
2019-03-29T10:11:07.601Z,5.70
2019-03-29T10:13:37.404Z,5.30
2019-03-29T10:16:06.763Z,5.80
2019-03-29T10:18:36.123Z,5.90
2019-03-29T10:21:05.579Z,5.93
2019-03-29T10:23:34.940Z,5.77
2019-03-29T10:26:04.451Z,6.20
2019-03-29T10:28:33.829Z,5.23
2019-03-29T10:31:04.718Z,6.00
2019-03-29T10:33:34.070Z,5.97
2019-03-29T10:36:04.236Z,6.40
2019-03-29T10:38:34.273Z,5.97
2019-03-29T10:41:03.852Z,6.70
2019-03-29T10:43:36.181Z,6.87
2019-03-29T10:46:05.910Z,7.07
2019-03-29T10:48:35.278Z,6.77
2019-03-29T10:51:08.170Z,5.90
2019-03-29T10:53:36.483Z,7.53
2019-03-29T10:56:05.845Z,6.53
2019-03-29T10:58:35.217Z,6.23
2019-03-29T11:01:05.015Z,5.97
2019-03-29T11:03:34.388Z,6.60
2019-03-29T11:06:03.854Z,6.13
2019-03-29T11:08:33.268Z,5.80
2019-03-29T11:11:02.635Z,6.10
2019-03-29T11:13:32.760Z,6.10
2019-03-29T11:16:02.129Z,5.40
2019-03-29T11:18:31.537Z,5.33
2019-03-29T11:21:00.915Z,5.37
2019-03-29T11:23:30.270Z,5.33
2019-03-29T11:25:59.632Z,5.97
2019-03-29T11:28:29.099Z,5.30
2019-03-29T11:30:58.464Z,4.37
2019-03-29T11:33:28.397Z,4.20
2019-03-29T11:35:58.181Z,4.20
2019-03-29T11:38:27.537Z,4.53
2019-03-29T11:40:56.924Z,5.27
2019-03-29T11:43:27.486Z,5.37
2019-03-29T11:45:56.981Z,4.20
2019-03-29T11:48:29.579Z,4.40
2019-03-29T11:50:59.129Z,4.80
2019-03-29T11:53:28.561Z,4.30
2019-03-29T11:55:58.256Z,4.83
2019-03-29T11:58:27.620Z,4.90
2019-03-29T12:00:56.982Z,4.77
2019-03-29T12:03:26.369Z,4.93
2019-03-29T12:05:55.787Z,5.27
2019-03-29T12:08:25.218Z,4.60
2019-03-29T12:10:54.597Z,4.57
2019-03-29T12:13:24.065Z,4.70
2019-03-29T12:15:53.422Z,3.90
2019-03-29T12:18:22.777Z,4.60
2019-03-29T12:20:54.391Z,5.13
2019-03-29T12:23:23.266Z,4.53
2019-03-29T12:25:52.624Z,3.80
2019-03-29T12:28:22.011Z,4.23
2019-03-29T12:30:51.376Z,4.63
2019-03-29T12:33:20.747Z,4.50
2019-03-29T12:35:50.531Z,4.10
2019-03-29T12:38:19.893Z,3.90
2019-03-29T12:40:49.280Z,4.70
2019-03-29T12:43:18.719Z,3.40
2019-03-29T12:45:48.088Z,3.50
2019-03-29T12:48:17.438Z,3.33
2019-03-29T12:50:48.252Z,3.53
2019-03-29T12:53:17.608Z,3.30
2019-03-29T12:55:46.989Z,3.83
2019-03-29T12:58:16.717Z,4.93
2019-03-29T13:00:46.092Z,3.83
2019-03-29T13:03:15.535Z,3.97
2019-03-29T13:05:44.912Z,4.27
2019-03-29T13:08:14.258Z,4.00
2019-03-29T13:10:43.646Z,3.60
2019-03-29T13:13:13.111Z,3.60
2019-03-29T13:15:42.465Z,2.93
2019-03-29T13:18:12.095Z,3.90
2019-03-29T13:20:42.715Z,3.60
2019-03-29T13:23:12.127Z,3.47
2019-03-29T13:25:41.496Z,4.00
2019-03-29T13:28:10.916Z,3.40
2019-03-29T13:30:40.272Z,3.77
2019-03-29T13:33:09.646Z,3.90
2019-03-29T13:35:39.093Z,3.53
2019-03-29T13:38:08.466Z,2.93
2019-03-29T13:40:40.991Z,3.03
2019-03-29T13:43:10.841Z,4.37
2019-03-29T13:45:40.312Z,3.63
2019-03-29T13:48:09.715Z,2.63
2019-03-29T13:50:39.125Z,3.07
2019-03-29T13:53:09.865Z,2.63
2019-03-29T13:55:39.236Z,2.70
2019-03-29T13:58:08.661Z,2.50
2019-03-29T14:00:38.018Z,2.93
2019-03-29T14:03:07.399Z,2.10
2019-03-29T14:05:36.840Z,2.57
2019-03-29T14:08:06.251Z,3.00
2019-03-29T14:10:35.636Z,2.80
2019-03-29T14:13:05.009Z,2.00
2019-03-29T14:15:34.410Z,2.93
2019-03-29T14:18:03.747Z,2.20
2019-03-29T14:20:34.745Z,2.20
2019-03-29T14:23:05.346Z,2.23
2019-03-29T14:25:34.849Z,2.50
2019-03-29T14:28:04.998Z,2.50
2019-03-29T14:30:34.365Z,2.07
2019-03-29T14:33:03.724Z,2.20
2019-03-29T14:35:33.160Z,2.47
2019-03-29T14:38:02.585Z,1.90
2019-03-29T14:40:31.963Z,1.70
2019-03-29T14:43:01.353Z,2.23
2019-03-29T14:45:30.807Z,2.15
2019-03-29T14:48:00.156Z,1.70
2019-03-29T14:50:29.966Z,2.27
2019-03-29T14:52:59.399Z,2.00
2019-03-29T14:55:31.607Z,2.10
2019-03-29T14:58:00.986Z,1.80
2019-03-29T15:00:42.931Z,2.33
2019-03-29T15:03:13.114Z,2.07
2019-03-29T15:05:42.611Z,2.17
2019-03-29T15:08:12.058Z,2.07
2019-03-29T15:10:45.467Z,2.40
2019-03-29T15:13:13.403Z,1.90
2019-03-29T15:15:42.715Z,1.80
2019-03-29T15:18:12.146Z,1.60
2019-03-29T15:20:52.486Z,2.07
2019-03-29T15:23:12.593Z,2.10
2019-03-29T15:25:41.994Z,1.87
2019-03-29T15:28:11.354Z,1.83
2019-03-29T15:31:00.132Z,2.73
2019-03-29T15:33:29.520Z,1.70
2019-03-29T15:35:58.881Z,2.40
2019-03-29T15:38:28.264Z,1.80
2019-03-29T15:40:57.635Z,1.70
2019-03-29T15:43:26.990Z,1.67
2019-03-29T15:45:56.516Z,1.60
2019-03-29T15:48:25.832Z,1.93
2019-03-29T15:50:55.220Z,1.87
2019-03-29T15:53:25.099Z,2.07
2019-03-29T15:55:54.468Z,1.87
2019-03-29T15:58:24.693Z,1.70
2019-03-29T16:00:54.058Z,1.80
2019-03-29T16:03:23.433Z,2.00
2019-03-29T16:05:52.805Z,1.90
2019-03-29T16:08:22.203Z,2.00
2019-03-29T16:10:51.551Z,1.70
2019-03-29T16:13:20.915Z,1.43
2019-03-29T16:15:50.317Z,1.60
2019-03-29T16:18:19.666Z,2.17
2019-03-29T16:20:49.049Z,2.07
2019-03-29T16:23:18.448Z,2.80
2019-03-29T16:25:47.826Z,3.05
2019-03-29T16:28:17.181Z,2.33
2019-03-29T16:30:46.674Z,2.60
2019-03-29T16:33:16.417Z,2.13
2019-03-29T16:35:46.164Z,2.30
2019-03-29T16:38:15.973Z,2.63
2019-03-29T16:40:45.831Z,2.20
2019-03-29T16:43:15.586Z,1.83
2019-03-29T16:45:48.256Z,2.90
2019-03-29T16:48:18.218Z,2.33
2019-03-29T16:50:47.575Z,1.80
2019-03-29T16:53:17.070Z,2.00
2019-03-29T16:55:46.428Z,2.43
2019-03-29T16:58:15.834Z,1.57
2019-03-29T17:00:46.401Z,2.10
2019-03-29T17:03:15.771Z,2.13
2019-03-29T17:05:45.129Z,2.83
2019-03-29T17:08:14.553Z,4.40
2019-03-29T17:10:43.920Z,3.70
2019-03-29T17:13:13.269Z,2.53
2019-03-29T17:15:43.010Z,2.60
2019-03-29T17:18:12.379Z,1.90
2019-03-29T17:20:41.781Z,1.95
2019-03-29T17:23:11.160Z,1.60
2019-03-29T17:25:40.549Z,1.67
2019-03-29T17:28:09.918Z,1.97
2019-03-29T17:30:42.942Z,1.90
2019-03-29T17:33:12.389Z,1.90
2019-03-29T17:35:41.784Z,2.08
2019-03-29T17:38:12.046Z,1.83
2019-03-29T17:40:41.421Z,2.00
2019-03-29T17:43:10.843Z,2.33
2019-03-29T17:45:40.246Z,1.73
2019-03-29T17:48:09.664Z,2.07
2019-03-29T17:50:40.647Z,1.70
2019-03-29T17:53:10.107Z,1.73
2019-03-29T17:55:39.553Z,2.30
2019-03-29T17:58:09.415Z,1.80
2019-03-29T18:00:39.237Z,2.47
2019-03-29T18:03:09.262Z,2.30
2019-03-29T18:05:38.631Z,2.33
2019-03-29T18:08:08.021Z,2.50
2019-03-29T18:10:37.406Z,2.40
2019-03-29T18:13:06.870Z,3.50
2019-03-29T18:15:37.121Z,3.70
2019-03-29T18:18:06.580Z,3.80
2019-03-29T18:20:35.932Z,3.47
2019-03-29T18:23:05.422Z,4.00
2019-03-29T18:25:34.792Z,3.83
2019-03-29T18:28:04.833Z,3.80
2019-03-29T18:30:40.426Z,3.57
2019-03-29T18:33:10.035Z,3.97
2019-03-29T18:35:39.396Z,4.43
2019-03-29T18:38:10.605Z,4.43
2019-03-29T18:40:39.968Z,5.53
2019-03-29T18:43:09.329Z,5.77
2019-03-29T18:45:41.479Z,6.00
2019-03-29T18:48:09.908Z,5.27
2019-03-29T18:50:39.260Z,4.63
2019-03-29T18:53:11.339Z,4.03
2019-03-29T18:55:40.816Z,5.60
2019-03-29T18:58:10.248Z,4.80
2019-03-29T19:00:39.808Z,4.67
2019-03-29T19:03:11.814Z,5.03
2019-03-29T19:05:40.922Z,4.43
2019-03-29T19:08:10.284Z,4.00
2019-03-29T19:10:39.657Z,5.27
2019-03-29T19:13:09.034Z,6.10
2019-03-29T19:15:38.877Z,5.37
2019-03-29T19:18:08.231Z,5.50
2019-03-29T19:20:37.595Z,4.93
2019-03-29T19:23:07.060Z,5.27
2019-03-29T19:25:36.409Z,4.60
2019-03-29T19:28:05.861Z,4.90
2019-03-29T19:30:35.294Z,4.50
2019-03-29T19:33:07.238Z,6.03
2019-03-29T19:35:36.608Z,5.57
2019-03-29T19:38:06.698Z,6.00
2019-03-29T19:40:36.415Z,4.43
2019-03-29T19:43:05.894Z,3.73
2019-03-29T19:45:35.295Z,4.80
2019-03-29T19:48:04.705Z,5.63
2019-03-29T19:50:34.103Z,9.27
2019-03-29T19:53:03.553Z,15.50
2019-03-29T19:55:32.913Z,14.07
2019-03-29T19:58:02.354Z,8.27
2019-03-29T20:00:41.172Z,6.97
2019-03-29T20:03:10.717Z,6.43
2019-03-29T20:05:40.230Z,4.83
2019-03-29T20:08:10.142Z,3.93
2019-03-29T20:10:39.568Z,3.60
2019-03-29T20:13:08.941Z,3.70
2019-03-29T20:15:38.323Z,4.60
2019-03-29T20:18:08.028Z,4.70
2019-03-29T20:20:37.411Z,5.43
2019-03-29T20:23:07.044Z,5.33
2019-03-29T20:25:36.481Z,4.93
2019-03-29T20:28:05.893Z,5.20
2019-03-29T20:30:35.424Z,6.03
2019-03-29T20:33:04.971Z,5.73
2019-03-29T20:35:34.348Z,6.27
2019-03-29T20:38:03.920Z,5.63
2019-03-29T20:40:33.326Z,5.37
2019-03-29T20:43:02.696Z,6.13
2019-03-29T20:45:32.156Z,5.17
2019-03-29T20:48:01.509Z,5.40
2019-03-29T20:50:30.872Z,4.73
2019-03-29T20:53:00.517Z,5.43
2019-03-29T20:55:30.171Z,5.83
2019-03-29T20:57:59.547Z,4.93
2019-03-29T21:00:28.929Z,5.80
2019-03-29T21:02:58.380Z,4.63
2019-03-29T21:05:27.784Z,5.13
2019-03-29T21:07:57.257Z,5.07
2019-03-29T21:10:27.934Z,4.33
2019-03-29T21:12:57.589Z,4.43
2019-03-29T21:15:26.970Z,5.00
2019-03-29T21:17:57.881Z,4.90
2019-03-29T21:20:27.484Z,5.23
2019-03-29T21:22:56.922Z,4.90
2019-03-29T21:25:26.364Z,5.10
2019-03-29T21:27:55.776Z,4.83
2019-03-29T21:30:25.707Z,5.60
2019-03-29T21:32:55.015Z,5.90
2019-03-29T21:35:24.409Z,6.00
2019-03-29T21:37:53.775Z,5.10
2019-03-29T21:40:23.124Z,5.53
2019-03-29T21:42:52.547Z,6.10
2019-03-29T21:45:28.444Z,5.13
2019-03-29T21:48:04.107Z,5.57
2019-03-29T21:50:24.071Z,4.80
2019-03-29T21:52:53.840Z,4.43
2019-03-29T21:55:23.202Z,4.67
2019-03-29T21:57:52.556Z,4.37
2019-03-29T22:00:22.065Z,5.37
2019-03-29T22:02:51.496Z,5.97
2019-03-29T22:05:20.852Z,5.27
2019-03-29T22:07:50.229Z,5.17
2019-03-29T22:10:19.599Z,5.27
2019-03-29T22:12:49.498Z,4.80
2019-03-29T22:15:18.891Z,4.87
2019-03-29T22:17:48.252Z,5.93
2019-03-29T22:20:17.603Z,5.43
2019-03-29T22:22:47.187Z,5.77
2019-03-29T22:25:16.498Z,4.67
2019-03-29T22:27:45.844Z,5.80
2019-03-29T22:30:17.018Z,4.73
2019-03-29T22:32:46.375Z,6.13
2019-03-29T22:35:15.716Z,5.55
2019-03-29T22:37:45.381Z,5.13
2019-03-29T22:40:20.727Z,5.58
2019-03-29T22:42:50.090Z,5.43
2019-03-29T22:45:19.540Z,6.13
2019-03-29T22:47:48.907Z,6.20
2019-03-29T22:50:18.332Z,6.20
2019-03-29T22:52:48.078Z,5.77
2019-03-29T22:55:17.428Z,5.47
2019-03-29T22:57:47.227Z,5.20
2019-03-29T23:00:30.968Z,6.10
2019-03-29T23:03:00.311Z,6.77
2019-03-29T23:05:29.667Z,5.17
2019-03-29T23:07:59.704Z,5.83
2019-03-29T23:10:29.053Z,5.57
2019-03-29T23:12:58.573Z,5.23
2019-03-29T23:15:29.400Z,6.17
2019-03-29T23:17:58.810Z,5.50
2019-03-29T23:20:28.220Z,6.23
2019-03-29T23:22:57.603Z,5.53
2019-03-29T23:25:26.985Z,6.63
2019-03-29T23:27:56.335Z,5.17
2019-03-29T23:30:25.895Z,6.50
2019-03-29T23:32:55.240Z,6.13
2019-03-29T23:35:24.614Z,6.57
2019-03-29T23:37:54.062Z,5.90
2019-03-29T23:40:23.429Z,6.03
2019-03-29T23:42:52.761Z,7.27
2019-03-29T23:45:22.133Z,6.97
2019-03-29T23:47:51.481Z,6.40
2019-03-29T23:50:20.844Z,5.70
2019-03-29T23:52:50.258Z,6.80
2019-03-29T23:55:19.631Z,6.23
2019-03-29T23:57:48.977Z,6.70
